• Join FlightAware (Why Join?)
  • Login
  • US Flag 
07:23AM EDT


 

Airport Tracker/Info


-or-


 

Live Flight TrackerFlight Track Log ✈ N319EE ✈ 03-Oct-2013 ✈ KROC - KFRG

Flight Track Log - Related Links

Times and Time Zones

All times are in EDT time to prevent confusion due to time zone crossing. See the N319EE flight status page for this flight to view local times or setup timezone preferences in your user account.

Time Position Orientation Groundspeed Altitude Reporting Facility
EDT Latitude Longitude Course Direction KTS MPH feet Rate Location/Type
04:10PM 43.1078 -77.7397 250° West 167 192 2,900  Level Cleveland Center
04:10PM 43.1008 -77.7375 167° South 166 191 3,100 1,500 Climbing Cleveland Center
04:11PM 43.0775 -77.6800 119° Southeast 173 199 4,800 1,500 Climbing Cleveland Center
04:12PM 43.0619 -77.6103 107° East 186 214 6,300 1,500 Climbing Cleveland Center
04:13PM 43.0433 -77.5386 110° East 196 226 8,000 1,560 Climbing Cleveland Center
04:14PM 43.0264 -77.4636 107° East 203 234 9,600 1,500 Climbing Cleveland Center
04:15PM 43.0014 -77.3606 108° East 237 273 11,100 1,440 Climbing Cleveland Center
04:16PM 42.9794 -77.2736 109° East 241 277 12,600 900 Climbing Cleveland Center
04:17PM 42.9578 -77.1814 108° East 252 290 13,000 180 Climbing Cleveland Center
04:18PM 42.9314 -77.0733 108° East 291 335 13,000  Level Cleveland Center
04:19PM 42.9031 -76.9614 109° East 309 356 13,000  Level Cleveland Center
04:20PM 42.8769 -76.8514 108° East 307 353 13,000  Level Cleveland Center
04:21PM 42.8442 -76.7172 108° East 309 356 13,000 -60 Level Cleveland Center
04:22PM 42.8211 -76.6228 108° East 307 353 12,900 -60 Descending Cleveland Center
04:23PM 42.7878 -76.4917 109° East 306 352 12,900  Level Cleveland Center
04:24PM 42.7606 -76.3814 109° East 309 356 12,900  Level Cleveland Center
04:25PM 42.7325 -76.2708 109° East 310 357 12,900  Level Cleveland Center
04:26PM 42.7064 -76.1617 108° East 307 353 12,900  Level Cleveland Center
04:27PM 42.6758 -76.0508 111° Southeast 313 360 12,900  Level Cleveland Center
04:28PM 42.6508 -75.9408 107° East 307 353 12,900  Level Boston Center
04:29PM 42.6208 -75.8319 110° East 307 353 12,900  Level Boston Center
04:30PM 42.5906 -75.7231 111° Southeast 307 353 12,900  Level Boston Center
04:31PM 42.5664 -75.6231 108° East 299 344 12,900  Level Boston Center
04:32PM 42.5361 -75.5089 110° East 299 344 12,900  Level Boston Center
04:33PM 42.5097 -75.4033 109° East 299 344 12,900  Level Boston Center
04:34PM 42.4811 -75.2947 110° East 299 344 12,900  Level Boston Center
04:35PM 42.4483 -75.1864 112° Southeast 299 344 12,900  Level Boston Center
04:36PM 42.4131 -75.0919 117° Southeast 299 344 12,900  Level Boston Center
04:37PM 42.3739 -74.9892 117° Southeast 299 344 12,900  Level Boston Center
04:38PM 42.3364 -74.8922 118° Southeast 299 344 12,900  Level Boston Center
04:39PM 42.2969 -74.7867 117° Southeast 299 344 12,900  Level Boston Center
04:40PM 42.2594 -74.6814 116° Southeast 304 350 12,900  Level Boston Center
04:41PM 42.2217 -74.5819 117° Southeast 304 350 12,900  Level Boston Center
04:42PM 42.1797 -74.4825 120° Southeast 304 350 12,900  Level Boston Center
04:43PM 42.1358 -74.3831 121° Southeast 314 361 13,000  Climbing Boston Center
04:44PM 42.0856 -74.2753 122° Southeast 309 356 13,000  Level Boston Center
04:45PM 42.0472 -74.1875 120° Southeast 309 356 13,000  Level Boston Center
04:46PM 41.9986 -74.0994 127° Southeast 304 350 13,000  Level Boston Center
04:47PM 41.9331 -74.0139 136° Southeast 297 342 13,000  Level Boston Center
04:48PM 41.8797 -73.9403 134° Southeast 297 342 13,000 -360 Level Boston Center
04:49PM 41.8142 -73.8550 136° Southeast 297 342 12,300 -1,200 Descending Boston Center
04:50PM 41.7589 -73.7814 135° Southeast 302 348 10,600 -1,740 Descending Boston Center
04:51PM 41.6931 -73.6967 136° Southeast 302 348 8,900 -1,620 Descending Boston Center
04:52PM 41.6356 -73.6206 135° Southeast 296 341 7,500 -1,020 Descending Boston Center
04:55PM 41.5000 -73.4500 137° Southeast 268 308 5,600 -900 Descending New York TRACON
04:56PM 41.4333 -73.3833 143° Southeast 271 312 4,500 -840 Descending New York TRACON
04:57PM 41.3833 -73.3333 143° Southeast 254 292 4,000 -300 Descending New York TRACON
04:58PM 41.3167 -73.3167 169° South 237 273 4,000  Level New York TRACON
04:59PM 41.2500 -73.3000 169° South 244 281 4,000  Level New York TRACON
05:00PM 41.1833 -73.3000 180° South 253 291 4,000  Level New York TRACON
05:01PM 41.1000 -73.3000 180° South 265 305 4,000 -300 Level New York TRACON
05:02PM 41.0333 -73.3000 180° South 261 300 3,500 -540 Descending New York TRACON
05:03PM 40.9667 -73.3000 180° South 250 288 3,000 -480 Descending New York TRACON
05:04PM 40.9000 -73.3167 191° South 234 269 2,600 -360 Descending New York TRACON
05:05PM 40.8500 -73.3667 217° Southwest 227 261 2,300 -360 Descending New York TRACON
05:06PM 40.8000 -73.4000 207° Southwest 186 214 1,900 -780 Descending New York TRACON
05:07PM 40.7667 -73.4167 201° Southwest 137 158 800 -1,140 Descending New York TRACON